sensor_id;sensor_type;location;lat;lon;timestamp;temperature;humidity
5689;DHT22;2869;50.432;8.680;2023-08-30T00:02:10;13.10;99.90
5689;DHT22;2869;50.432;8.680;2023-08-30T00:04:37;13.10;99.90
5689;DHT22;2869;50.432;8.680;2023-08-30T00:07:03;13.10;99.90
5689;DHT22;2869;50.432;8.680;2023-08-30T00:09:30;13.10;99.90
5689;DHT22;2869;50.432;8.680;2023-08-30T00:11:57;13.10;99.90
5689;DHT22;2869;50.432;8.680;2023-08-30T00:14:25;13.20;99.90
5689;DHT22;2869;50.432;8.680;2023-08-30T00:16:52;13.20;99.90
5689;DHT22;2869;50.432;8.680;2023-08-30T00:19:18;13.20;99.90
5689;DHT22;2869;50.432;8.680;2023-08-30T00:21:46;13.10;99.90
5689;DHT22;2869;50.432;8.680;2023-08-30T00:24:12;13.00;99.90
5689;DHT22;2869;50.432;8.680;2023-08-30T00:26:40;13.10;99.90
5689;DHT22;2869;50.432;8.680;2023-08-30T00:29:06;13.10;99.90
5689;DHT22;2869;50.432;8.680;2023-08-30T00:31:34;13.10;99.90
5689;DHT22;2869;50.432;8.680;2023-08-30T00:34:01;13.10;99.90
5689;DHT22;2869;50.432;8.680;2023-08-30T00:36:27;13.10;99.90
5689;DHT22;2869;50.432;8.680;2023-08-30T00:38:54;13.10;99.90
5689;DHT22;2869;50.432;8.680;2023-08-30T00:41:21;13.10;99.90
5689;DHT22;2869;50.432;8.680;2023-08-30T00:43:47;13.00;99.90
5689;DHT22;2869;50.432;8.680;2023-08-30T00:46:14;13.00;99.90
5689;DHT22;2869;50.432;8.680;2023-08-30T00:48:44;12.80;99.90
5689;DHT22;2869;50.432;8.680;2023-08-30T00:51:11;12.70;99.90
5689;DHT22;2869;50.432;8.680;2023-08-30T00:53:38;12.70;99.90
5689;DHT22;2869;50.432;8.680;2023-08-30T00:56:05;12.70;99.90
5689;DHT22;2869;50.432;8.680;2023-08-30T00:58:31;12.70;99.90
5689;DHT22;2869;50.432;8.680;2023-08-30T01:00:58;12.70;99.90
5689;DHT22;2869;50.432;8.680;2023-08-30T01:03:25;12.80;99.90
5689;DHT22;2869;50.432;8.680;2023-08-30T01:05:53;12.80;99.90
5689;DHT22;2869;50.432;8.680;2023-08-30T01:08:20;12.90;99.90
5689;DHT22;2869;50.432;8.680;2023-08-30T01:10:53;12.90;99.90
5689;DHT22;2869;50.432;8.680;2023-08-30T01:13:20;12.90;99.90
5689;DHT22;2869;50.432;8.680;2023-08-30T01:15:48;12.90;99.90
5689;DHT22;2869;50.432;8.680;2023-08-30T01:18:18;13.00;99.90
5689;DHT22;2869;50.432;8.680;2023-08-30T01:20:45;13.00;99.90
5689;DHT22;2869;50.432;8.680;2023-08-30T01:23:23;13.00;99.90
5689;DHT22;2869;50.432;8.680;2023-08-30T01:25:55;13.10;99.90
5689;DHT22;2869;50.432;8.680;2023-08-30T01:28:27;13.10;99.90
5689;DHT22;2869;50.432;8.680;2023-08-30T01:30:55;13.10;99.90
5689;DHT22;2869;50.432;8.680;2023-08-30T01:33:24;13.10;99.90
5689;DHT22;2869;50.432;8.680;2023-08-30T01:35:53;13.10;99.90
5689;DHT22;2869;50.432;8.680;2023-08-30T01:38:20;13.10;99.90
5689;DHT22;2869;50.432;8.680;2023-08-30T01:40:48;13.10;99.90
5689;DHT22;2869;50.432;8.680;2023-08-30T01:43:16;13.10;99.90
5689;DHT22;2869;50.432;8.680;2023-08-30T01:45:44;13.20;99.90
5689;DHT22;2869;50.432;8.680;2023-08-30T01:48:12;13.20;99.90
5689;DHT22;2869;50.432;8.680;2023-08-30T01:50:39;13.20;99.90
5689;DHT22;2869;50.432;8.680;2023-08-30T01:53:07;13.20;99.90
5689;DHT22;2869;50.432;8.680;2023-08-30T01:55:35;13.10;99.90
5689;DHT22;2869;50.432;8.680;2023-08-30T01:58:03;13.10;99.90
5689;DHT22;2869;50.432;8.680;2023-08-30T02:00:30;13.10;99.90
5689;DHT22;2869;50.432;8.680;2023-08-30T02:02:58;13.00;99.90
5689;DHT22;2869;50.432;8.680;2023-08-30T02:05:25;13.00;99.90
5689;DHT22;2869;50.432;8.680;2023-08-30T02:07:56;13.00;99.90
5689;DHT22;2869;50.432;8.680;2023-08-30T02:10:29;12.90;99.90
5689;DHT22;2869;50.432;8.680;2023-08-30T02:12:59;12.90;99.90
5689;DHT22;2869;50.432;8.680;2023-08-30T02:15:27;12.80;99.90
5689;DHT22;2869;50.432;8.680;2023-08-30T02:17:54;12.70;99.90
5689;DHT22;2869;50.432;8.680;2023-08-30T02:20:23;12.70;99.90
5689;DHT22;2869;50.432;8.680;2023-08-30T02:22:50;12.70;99.90
5689;DHT22;2869;50.432;8.680;2023-08-30T02:25:16;12.70;99.90
5689;DHT22;2869;50.432;8.680;2023-08-30T02:27:43;12.70;99.90
5689;DHT22;2869;50.432;8.680;2023-08-30T02:30:10;12.70;99.90
5689;DHT22;2869;50.432;8.680;2023-08-30T02:32:37;12.70;99.90
5689;DHT22;2869;50.432;8.680;2023-08-30T02:35:05;12.70;99.90
5689;DHT22;2869;50.432;8.680;2023-08-30T02:37:33;12.70;99.90
5689;DHT22;2869;50.432;8.680;2023-08-30T02:40:00;12.70;99.90
5689;DHT22;2869;50.432;8.680;2023-08-30T02:42:26;12.70;99.90
5689;DHT22;2869;50.432;8.680;2023-08-30T02:44:53;12.70;99.90
5689;DHT22;2869;50.432;8.680;2023-08-30T02:47:19;12.70;99.90
5689;DHT22;2869;50.432;8.680;2023-08-30T02:49:46;12.70;99.90
5689;DHT22;2869;50.432;8.680;2023-08-30T02:52:13;12.70;99.90
5689;DHT22;2869;50.432;8.680;2023-08-30T02:54:41;12.70;99.90
5689;DHT22;2869;50.432;8.680;2023-08-30T02:57:08;12.70;99.90
5689;DHT22;2869;50.432;8.680;2023-08-30T02:59:34;12.70;99.90
5689;DHT22;2869;50.432;8.680;2023-08-30T03:02:01;12.70;99.90
5689;DHT22;2869;50.432;8.680;2023-08-30T03:04:28;12.70;99.90
5689;DHT22;2869;50.432;8.680;2023-08-30T03:06:54;12.70;99.90
5689;DHT22;2869;50.432;8.680;2023-08-30T03:09:21;12.70;99.90
5689;DHT22;2869;50.432;8.680;2023-08-30T03:11:49;12.80;99.90
5689;DHT22;2869;50.432;8.680;2023-08-30T03:14:16;12.80;99.90
5689;DHT22;2869;50.432;8.680;2023-08-30T03:16:42;12.80;99.90
5689;DHT22;2869;50.432;8.680;2023-08-30T03:19:10;12.90;99.90
5689;DHT22;2869;50.432;8.680;2023-08-30T03:21:37;12.90;99.90
5689;DHT22;2869;50.432;8.680;2023-08-30T03:24:04;12.90;99.90
5689;DHT22;2869;50.432;8.680;2023-08-30T03:26:31;12.90;99.90
5689;DHT22;2869;50.432;8.680;2023-08-30T03:28:59;12.80;99.90
5689;DHT22;2869;50.432;8.680;2023-08-30T03:31:25;12.80;99.90
5689;DHT22;2869;50.432;8.680;2023-08-30T03:33:52;12.80;99.90
5689;DHT22;2869;50.432;8.680;2023-08-30T03:36:19;12.80;99.90
5689;DHT22;2869;50.432;8.680;2023-08-30T03:38:46;12.70;99.90
5689;DHT22;2869;50.432;8.680;2023-08-30T03:41:13;12.70;99.90
5689;DHT22;2869;50.432;8.680;2023-08-30T03:43:40;12.70;99.90
5689;DHT22;2869;50.432;8.680;2023-08-30T03:46:08;12.70;99.90
5689;DHT22;2869;50.432;8.680;2023-08-30T03:48:37;12.70;99.90
5689;DHT22;2869;50.432;8.680;2023-08-30T03:51:04;12.70;99.90
5689;DHT22;2869;50.432;8.680;2023-08-30T03:53:30;12.70;99.90
5689;DHT22;2869;50.432;8.680;2023-08-30T03:55:57;12.70;99.90
5689;DHT22;2869;50.432;8.680;2023-08-30T03:58:24;12.70;99.90
5689;DHT22;2869;50.432;8.680;2023-08-30T04:00:51;12.60;99.90
5689;DHT22;2869;50.432;8.680;2023-08-30T04:03:19;12.60;99.90
5689;DHT22;2869;50.432;8.680;2023-08-30T04:05:46;12.60;99.90
5689;DHT22;2869;50.432;8.680;2023-08-30T04:08:12;12.60;99.90
5689;DHT22;2869;50.432;8.680;2023-08-30T04:10:41;12.60;99.90
5689;DHT22;2869;50.432;8.680;2023-08-30T04:13:08;12.60;99.90
5689;DHT22;2869;50.432;8.680;2023-08-30T04:15:35;12.60;99.90
5689;DHT22;2869;50.432;8.680;2023-08-30T04:18:03;12.60;99.90
5689;DHT22;2869;50.432;8.680;2023-08-30T04:20:32;12.60;99.90
5689;DHT22;2869;50.432;8.680;2023-08-30T04:22:59;12.60;99.90
5689;DHT22;2869;50.432;8.680;2023-08-30T04:25:27;12.60;99.90
5689;DHT22;2869;50.432;8.680;2023-08-30T04:27:53;12.60;99.90
5689;DHT22;2869;50.432;8.680;2023-08-30T04:30:20;12.70;99.90
5689;DHT22;2869;50.432;8.680;2023-08-30T04:32:47;12.70;99.90
5689;DHT22;2869;50.432;8.680;2023-08-30T04:35:13;12.70;99.90
5689;DHT22;2869;50.432;8.680;2023-08-30T04:37:41;12.70;99.90
5689;DHT22;2869;50.432;8.680;2023-08-30T04:40:09;12.60;99.90
5689;DHT22;2869;50.432;8.680;2023-08-30T04:42:35;12.70;99.90
5689;DHT22;2869;50.432;8.680;2023-08-30T04:45:03;12.60;99.90
5689;DHT22;2869;50.432;8.680;2023-08-30T04:47:31;12.50;99.90
5689;DHT22;2869;50.432;8.680;2023-08-30T04:49:58;12.50;99.90
5689;DHT22;2869;50.432;8.680;2023-08-30T04:52:25;12.50;99.90
5689;DHT22;2869;50.432;8.680;2023-08-30T04:54:53;12.50;99.90
5689;DHT22;2869;50.432;8.680;2023-08-30T04:57:20;12.60;99.90
5689;DHT22;2869;50.432;8.680;2023-08-30T04:59:47;12.60;99.90
5689;DHT22;2869;50.432;8.680;2023-08-30T05:02:14;12.60;99.90
5689;DHT22;2869;50.432;8.680;2023-08-30T05:04:41;12.60;99.90
5689;DHT22;2869;50.432;8.680;2023-08-30T05:07:07;12.60;99.90
5689;DHT22;2869;50.432;8.680;2023-08-30T05:09:34;12.60;99.90
5689;DHT22;2869;50.432;8.680;2023-08-30T05:12:02;12.70;99.90
5689;DHT22;2869;50.432;8.680;2023-08-30T05:14:29;12.70;99.90
5689;DHT22;2869;50.432;8.680;2023-08-30T05:16:55;12.70;99.90
5689;DHT22;2869;50.432;8.680;2023-08-30T05:19:22;12.70;99.90
5689;DHT22;2869;50.432;8.680;2023-08-30T05:21:49;12.70;99.90
5689;DHT22;2869;50.432;8.680;2023-08-30T05:24:16;12.80;99.90
5689;DHT22;2869;50.432;8.680;2023-08-30T05:26:43;12.80;99.90
5689;DHT22;2869;50.432;8.680;2023-08-30T05:29:13;12.80;99.90
5689;DHT22;2869;50.432;8.680;2023-08-30T05:31:40;12.90;99.90
5689;DHT22;2869;50.432;8.680;2023-08-30T05:34:07;13.00;99.90
5689;DHT22;2869;50.432;8.680;2023-08-30T05:36:34;13.00;99.90
5689;DHT22;2869;50.432;8.680;2023-08-30T05:39:00;13.00;99.90
5689;DHT22;2869;50.432;8.680;2023-08-30T05:41:28;13.00;99.90
5689;DHT22;2869;50.432;8.680;2023-08-30T05:43:55;13.10;99.90
5689;DHT22;2869;50.432;8.680;2023-08-30T05:46:23;13.00;99.90
5689;DHT22;2869;50.432;8.680;2023-08-30T05:48:50;13.00;99.90
5689;DHT22;2869;50.432;8.680;2023-08-30T05:51:17;13.00;99.90
5689;DHT22;2869;50.432;8.680;2023-08-30T05:53:45;13.10;99.90
5689;DHT22;2869;50.432;8.680;2023-08-30T05:56:12;13.10;99.90
5689;DHT22;2869;50.432;8.680;2023-08-30T05:58:38;13.10;99.90
5689;DHT22;2869;50.432;8.680;2023-08-30T06:01:05;13.00;99.90
5689;DHT22;2869;50.432;8.680;2023-08-30T06:03:34;13.00;99.90
5689;DHT22;2869;50.432;8.680;2023-08-30T06:06:01;13.00;99.90
5689;DHT22;2869;50.432;8.680;2023-08-30T06:08:28;13.00;99.90
5689;DHT22;2869;50.432;8.680;2023-08-30T06:10:55;13.00;99.90
5689;DHT22;2869;50.432;8.680;2023-08-30T06:13:22;13.10;99.90
5689;DHT22;2869;50.432;8.680;2023-08-30T06:15:50;13.10;99.90
5689;DHT22;2869;50.432;8.680;2023-08-30T06:18:17;13.20;99.90
5689;DHT22;2869;50.432;8.680;2023-08-30T06:20:45;13.20;99.90
5689;DHT22;2869;50.432;8.680;2023-08-30T06:23:13;13.30;99.90
5689;DHT22;2869;50.432;8.680;2023-08-30T06:25:40;13.30;99.90
5689;DHT22;2869;50.432;8.680;2023-08-30T06:28:07;13.30;99.90
5689;DHT22;2869;50.432;8.680;2023-08-30T06:30:34;13.30;99.90
5689;DHT22;2869;50.432;8.680;2023-08-30T06:33:00;13.30;99.90
5689;DHT22;2869;50.432;8.680;2023-08-30T06:35:27;13.30;99.90
5689;DHT22;2869;50.432;8.680;2023-08-30T06:37:55;13.30;99.90
5689;DHT22;2869;50.432;8.680;2023-08-30T06:40:22;13.40;99.90
5689;DHT22;2869;50.432;8.680;2023-08-30T06:42:48;13.40;99.90
5689;DHT22;2869;50.432;8.680;2023-08-30T06:45:15;13.40;99.90
5689;DHT22;2869;50.432;8.680;2023-08-30T06:47:42;13.50;99.90
5689;DHT22;2869;50.432;8.680;2023-08-30T06:50:09;13.60;99.90
5689;DHT22;2869;50.432;8.680;2023-08-30T06:52:36;13.70;99.90
5689;DHT22;2869;50.432;8.680;2023-08-30T06:55:04;13.80;99.90
5689;DHT22;2869;50.432;8.680;2023-08-30T06:57:31;14.00;99.90
5689;DHT22;2869;50.432;8.680;2023-08-30T06:59:58;14.10;99.90
5689;DHT22;2869;50.432;8.680;2023-08-30T07:02:33;14.20;99.90
5689;DHT22;2869;50.432;8.680;2023-08-30T07:04:59;14.30;99.90
5689;DHT22;2869;50.432;8.680;2023-08-30T07:07:26;14.50;99.90
5689;DHT22;2869;50.432;8.680;2023-08-30T07:09:53;14.70;99.90
5689;DHT22;2869;50.432;8.680;2023-08-30T07:12:21;14.80;99.90
5689;DHT22;2869;50.432;8.680;2023-08-30T07:14:47;15.00;99.90
5689;DHT22;2869;50.432;8.680;2023-08-30T07:17:14;15.30;99.90
5689;DHT22;2869;50.432;8.680;2023-08-30T07:19:41;15.30;99.90
5689;DHT22;2869;50.432;8.680;2023-08-30T07:22:07;15.40;99.90
5689;DHT22;2869;50.432;8.680;2023-08-30T07:24:34;15.50;99.90
5689;DHT22;2869;50.432;8.680;2023-08-30T07:27:00;15.50;99.90
5689;DHT22;2869;50.432;8.680;2023-08-30T07:29:28;15.60;99.90
5689;DHT22;2869;50.432;8.680;2023-08-30T07:31:55;15.70;99.90
5689;DHT22;2869;50.432;8.680;2023-08-30T07:34:22;15.80;99.90
5689;DHT22;2869;50.432;8.680;2023-08-30T07:36:48;15.80;99.90
5689;DHT22;2869;50.432;8.680;2023-08-30T07:39:15;16.00;99.90
5689;DHT22;2869;50.432;8.680;2023-08-30T07:41:41;16.10;99.90
5689;DHT22;2869;50.432;8.680;2023-08-30T07:44:08;16.10;99.90
5689;DHT22;2869;50.432;8.680;2023-08-30T07:46:36;16.10;99.90
5689;DHT22;2869;50.432;8.680;2023-08-30T07:49:03;16.10;99.90
5689;DHT22;2869;50.432;8.680;2023-08-30T07:51:29;16.00;99.90
5689;DHT22;2869;50.432;8.680;2023-08-30T07:53:56;16.00;99.90
5689;DHT22;2869;50.432;8.680;2023-08-30T07:56:23;16.20;99.90
5689;DHT22;2869;50.432;8.680;2023-08-30T07:58:49;16.40;99.90
5689;DHT22;2869;50.432;8.680;2023-08-30T08:01:16;16.50;99.90
5689;DHT22;2869;50.432;8.680;2023-08-30T08:03:44;16.70;99.90
5689;DHT22;2869;50.432;8.680;2023-08-30T08:06:10;16.70;99.90
5689;DHT22;2869;50.432;8.680;2023-08-30T08:08:37;16.80;99.90
5689;DHT22;2869;50.432;8.680;2023-08-30T08:11:04;17.10;99.90
5689;DHT22;2869;50.432;8.680;2023-08-30T08:13:30;17.30;99.90
5689;DHT22;2869;50.432;8.680;2023-08-30T08:15:57;17.30;99.90
5689;DHT22;2869;50.432;8.680;2023-08-30T08:18:24;17.30;99.90
5689;DHT22;2869;50.432;8.680;2023-08-30T08:20:53;17.10;99.90
5689;DHT22;2869;50.432;8.680;2023-08-30T08:23:20;17.20;99.90
5689;DHT22;2869;50.432;8.680;2023-08-30T08:25:46;17.30;99.90
5689;DHT22;2869;50.432;8.680;2023-08-30T08:28:13;17.50;99.90
5689;DHT22;2869;50.432;8.680;2023-08-30T08:30:41;17.60;99.90
5689;DHT22;2869;50.432;8.680;2023-08-30T08:33:10;17.80;99.90
5689;DHT22;2869;50.432;8.680;2023-08-30T08:35:37;17.80;99.90
5689;DHT22;2869;50.432;8.680;2023-08-30T08:38:05;17.80;99.90
5689;DHT22;2869;50.432;8.680;2023-08-30T08:40:31;17.70;99.90
5689;DHT22;2869;50.432;8.680;2023-08-30T08:42:58;17.60;99.90
5689;DHT22;2869;50.432;8.680;2023-08-30T08:45:25;17.60;99.90
5689;DHT22;2869;50.432;8.680;2023-08-30T08:47:51;17.60;99.90
5689;DHT22;2869;50.432;8.680;2023-08-30T08:50:18;17.60;99.90
5689;DHT22;2869;50.432;8.680;2023-08-30T08:52:45;17.50;99.90
5689;DHT22;2869;50.432;8.680;2023-08-30T08:55:14;17.70;99.90
5689;DHT22;2869;50.432;8.680;2023-08-30T08:57:42;17.80;99.90
5689;DHT22;2869;50.432;8.680;2023-08-30T09:00:11;17.90;99.90
5689;DHT22;2869;50.432;8.680;2023-08-30T09:02:39;18.10;99.90
5689;DHT22;2869;50.432;8.680;2023-08-30T09:05:07;18.30;99.90
5689;DHT22;2869;50.432;8.680;2023-08-30T09:07:33;18.40;99.90
5689;DHT22;2869;50.432;8.680;2023-08-30T09:10:00;18.70;99.90
5689;DHT22;2869;50.432;8.680;2023-08-30T09:12:32;18.60;99.90
5689;DHT22;2869;50.432;8.680;2023-08-30T09:14:59;18.70;99.90
5689;DHT22;2869;50.432;8.680;2023-08-30T09:17:35;18.80;99.90
5689;DHT22;2869;50.432;8.680;2023-08-30T09:20:06;19.20;99.90
5689;DHT22;2869;50.432;8.680;2023-08-30T09:22:37;19.60;99.90
5689;DHT22;2869;50.432;8.680;2023-08-30T09:25:05;19.90;99.90
5689;DHT22;2869;50.432;8.680;2023-08-30T09:27:34;20.20;99.90
5689;DHT22;2869;50.432;8.680;2023-08-30T09:30:01;20.50;99.90
5689;DHT22;2869;50.432;8.680;2023-08-30T09:32:29;20.70;99.90
5689;DHT22;2869;50.432;8.680;2023-08-30T09:34:56;20.80;99.90
5689;DHT22;2869;50.432;8.680;2023-08-30T09:37:23;20.80;99.90
5689;DHT22;2869;50.432;8.680;2023-08-30T09:39:52;20.60;99.90
5689;DHT22;2869;50.432;8.680;2023-08-30T09:42:18;20.40;99.90
5689;DHT22;2869;50.432;8.680;2023-08-30T09:44:47;20.40;99.90
5689;DHT22;2869;50.432;8.680;2023-08-30T09:47:14;20.30;99.90
5689;DHT22;2869;50.432;8.680;2023-08-30T09:49:43;20.20;99.90
5689;DHT22;2869;50.432;8.680;2023-08-30T09:52:12;20.00;99.90
5689;DHT22;2869;50.432;8.680;2023-08-30T09:54:41;19.90;99.90
5689;DHT22;2869;50.432;8.680;2023-08-30T09:57:09;20.20;99.90
5689;DHT22;2869;50.432;8.680;2023-08-30T09:59:37;20.60;99.90
5689;DHT22;2869;50.432;8.680;2023-08-30T10:02:05;20.80;99.90
5689;DHT22;2869;50.432;8.680;2023-08-30T10:04:35;21.00;99.90
5689;DHT22;2869;50.432;8.680;2023-08-30T10:07:04;21.40;99.90
5689;DHT22;2869;50.432;8.680;2023-08-30T10:09:31;21.50;99.90
5689;DHT22;2869;50.432;8.680;2023-08-30T10:11:58;21.80;99.90
5689;DHT22;2869;50.432;8.680;2023-08-30T10:14:27;22.00;99.90
5689;DHT22;2869;50.432;8.680;2023-08-30T10:17:04;22.20;99.90
5689;DHT22;2869;50.432;8.680;2023-08-30T10:19:34;22.10;99.90
5689;DHT22;2869;50.432;8.680;2023-08-30T10:22:04;22.00;99.90
5689;DHT22;2869;50.432;8.680;2023-08-30T10:24:37;22.00;99.90
5689;DHT22;2869;50.432;8.680;2023-08-30T10:27:06;22.10;99.90
5689;DHT22;2869;50.432;8.680;2023-08-30T10:29:35;22.00;99.90
5689;DHT22;2869;50.432;8.680;2023-08-30T10:32:05;21.90;99.90
5689;DHT22;2869;50.432;8.680;2023-08-30T10:34:32;21.90;99.90
5689;DHT22;2869;50.432;8.680;2023-08-30T10:37:01;22.00;99.90
5689;DHT22;2869;50.432;8.680;2023-08-30T10:39:33;21.80;99.90
5689;DHT22;2869;50.432;8.680;2023-08-30T10:42:06;21.50;99.90
5689;DHT22;2869;50.432;8.680;2023-08-30T10:44:33;21.10;99.90
5689;DHT22;2869;50.432;8.680;2023-08-30T10:47:02;20.90;99.90
5689;DHT22;2869;50.432;8.680;2023-08-30T10:49:39;21.10;99.90
5689;DHT22;2869;50.432;8.680;2023-08-30T10:52:11;21.20;99.90
5689;DHT22;2869;50.432;8.680;2023-08-30T10:54:38;21.30;99.90
5689;DHT22;2869;50.432;8.680;2023-08-30T10:57:05;21.70;99.90
5689;DHT22;2869;50.432;8.680;2023-08-30T10:59:31;22.20;99.90
5689;DHT22;2869;50.432;8.680;2023-08-30T11:02:01;22.50;99.90
5689;DHT22;2869;50.432;8.680;2023-08-30T11:04:30;22.30;99.90
5689;DHT22;2869;50.432;8.680;2023-08-30T11:06:57;22.30;99.90
5689;DHT22;2869;50.432;8.680;2023-08-30T11:09:24;22.50;99.90
5689;DHT22;2869;50.432;8.680;2023-08-30T11:11:52;22.10;99.90
5689;DHT22;2869;50.432;8.680;2023-08-30T11:14:19;21.70;99.90
5689;DHT22;2869;50.432;8.680;2023-08-30T11:16:45;21.30;99.90
5689;DHT22;2869;50.432;8.680;2023-08-30T11:19:12;21.20;99.90
5689;DHT22;2869;50.432;8.680;2023-08-30T11:21:43;21.50;99.90
5689;DHT22;2869;50.432;8.680;2023-08-30T11:24:10;21.70;99.90
5689;DHT22;2869;50.432;8.680;2023-08-30T11:26:37;21.90;99.90
5689;DHT22;2869;50.432;8.680;2023-08-30T11:29:05;22.00;99.90
5689;DHT22;2869;50.432;8.680;2023-08-30T11:31:32;22.10;99.90
5689;DHT22;2869;50.432;8.680;2023-08-30T11:33:59;22.00;99.90
5689;DHT22;2869;50.432;8.680;2023-08-30T11:36:27;22.20;99.90
5689;DHT22;2869;50.432;8.680;2023-08-30T11:38:56;22.40;99.90
5689;DHT22;2869;50.432;8.680;2023-08-30T11:41:23;22.70;99.90
5689;DHT22;2869;50.432;8.680;2023-08-30T11:43:50;22.80;99.90
5689;DHT22;2869;50.432;8.680;2023-08-30T11:46:18;22.80;99.90
5689;DHT22;2869;50.432;8.680;2023-08-30T11:48:47;22.40;99.90
5689;DHT22;2869;50.432;8.680;2023-08-30T11:51:14;22.00;99.90
5689;DHT22;2869;50.432;8.680;2023-08-30T11:53:41;21.90;99.90
5689;DHT22;2869;50.432;8.680;2023-08-30T11:56:09;21.60;99.90
5689;DHT22;2869;50.432;8.680;2023-08-30T11:58:37;21.50;99.90
5689;DHT22;2869;50.432;8.680;2023-08-30T12:01:04;21.30;99.90
5689;DHT22;2869;50.432;8.680;2023-08-30T12:03:31;21.30;99.90
5689;DHT22;2869;50.432;8.680;2023-08-30T12:05:59;21.00;99.90
5689;DHT22;2869;50.432;8.680;2023-08-30T12:08:28;21.00;99.90
5689;DHT22;2869;50.432;8.680;2023-08-30T12:10:56;20.90;99.90
5689;DHT22;2869;50.432;8.680;2023-08-30T12:13:25;20.90;99.90
5689;DHT22;2869;50.432;8.680;2023-08-30T12:15:52;20.70;99.90
5689;DHT22;2869;50.432;8.680;2023-08-30T12:18:21;20.50;99.90
5689;DHT22;2869;50.432;8.680;2023-08-30T12:20:52;20.50;99.90
5689;DHT22;2869;50.432;8.680;2023-08-30T12:23:20;20.50;99.90
5689;DHT22;2869;50.432;8.680;2023-08-30T12:25:57;20.40;99.90
5689;DHT22;2869;50.432;8.680;2023-08-30T12:28:25;20.30;99.90
5689;DHT22;2869;50.432;8.680;2023-08-30T12:30:52;20.30;99.90
5689;DHT22;2869;50.432;8.680;2023-08-30T12:33:19;20.20;99.90
5689;DHT22;2869;50.432;8.680;2023-08-30T12:35:45;20.10;99.90
5689;DHT22;2869;50.432;8.680;2023-08-30T12:38:12;20.00;99.90
5689;DHT22;2869;50.432;8.680;2023-08-30T12:40:43;20.00;99.90
5689;DHT22;2869;50.432;8.680;2023-08-30T12:43:10;20.00;99.90
5689;DHT22;2869;50.432;8.680;2023-08-30T12:45:38;20.00;99.90
5689;DHT22;2869;50.432;8.680;2023-08-30T12:48:06;20.10;99.90
5689;DHT22;2869;50.432;8.680;2023-08-30T12:50:33;20.10;99.90
5689;DHT22;2869;50.432;8.680;2023-08-30T12:53:00;20.20;99.90
5689;DHT22;2869;50.432;8.680;2023-08-30T12:55:28;20.40;99.90
5689;DHT22;2869;50.432;8.680;2023-08-30T12:57:54;20.60;99.90
5689;DHT22;2869;50.432;8.680;2023-08-30T13:00:21;21.00;99.90
5689;DHT22;2869;50.432;8.680;2023-08-30T13:02:49;21.70;99.90
5689;DHT22;2869;50.432;8.680;2023-08-30T13:05:16;22.20;99.90
5689;DHT22;2869;50.432;8.680;2023-08-30T13:07:44;22.70;99.90
5689;DHT22;2869;50.432;8.680;2023-08-30T13:10:11;22.90;99.90
5689;DHT22;2869;50.432;8.680;2023-08-30T13:12:37;23.20;99.90
5689;DHT22;2869;50.432;8.680;2023-08-30T13:15:06;23.20;99.90
5689;DHT22;2869;50.432;8.680;2023-08-30T13:17:32;23.30;99.90
5689;DHT22;2869;50.432;8.680;2023-08-30T13:20:01;23.10;99.90
5689;DHT22;2869;50.432;8.680;2023-08-30T13:22:28;23.20;99.90
5689;DHT22;2869;50.432;8.680;2023-08-30T13:24:55;23.00;99.90
5689;DHT22;2869;50.432;8.680;2023-08-30T13:27:22;22.80;99.90
5689;DHT22;2869;50.432;8.680;2023-08-30T13:29:48;22.50;99.90
5689;DHT22;2869;50.432;8.680;2023-08-30T13:32:15;22.30;99.90
5689;DHT22;2869;50.432;8.680;2023-08-30T13:34:42;22.00;99.90
5689;DHT22;2869;50.432;8.680;2023-08-30T13:37:12;21.60;99.90
5689;DHT22;2869;50.432;8.680;2023-08-30T13:39:39;21.20;99.90
5689;DHT22;2869;50.432;8.680;2023-08-30T13:42:06;21.10;99.90
5689;DHT22;2869;50.432;8.680;2023-08-30T13:44:32;21.10;99.90
5689;DHT22;2869;50.432;8.680;2023-08-30T13:47:01;21.00;99.90
5689;DHT22;2869;50.432;8.680;2023-08-30T13:49:28;20.90;99.90
5689;DHT22;2869;50.432;8.680;2023-08-30T13:51:55;20.90;99.90
5689;DHT22;2869;50.432;8.680;2023-08-30T13:54:23;20.80;99.90
5689;DHT22;2869;50.432;8.680;2023-08-30T13:56:50;20.30;99.90
5689;DHT22;2869;50.432;8.680;2023-08-30T13:59:16;19.90;99.90
5689;DHT22;2869;50.432;8.680;2023-08-30T14:01:43;19.60;99.90
5689;DHT22;2869;50.432;8.680;2023-08-30T14:04:11;19.40;99.90
5689;DHT22;2869;50.432;8.680;2023-08-30T14:06:37;19.10;99.90
5689;DHT22;2869;50.432;8.680;2023-08-30T14:09:04;19.00;99.90
5689;DHT22;2869;50.432;8.680;2023-08-30T14:11:35;18.90;99.90
5689;DHT22;2869;50.432;8.680;2023-08-30T14:14:03;19.00;99.90
5689;DHT22;2869;50.432;8.680;2023-08-30T14:16:30;19.00;99.90
5689;DHT22;2869;50.432;8.680;2023-08-30T14:18:56;19.10;99.90
5689;DHT22;2869;50.432;8.680;2023-08-30T14:21:25;19.20;99.90
5689;DHT22;2869;50.432;8.680;2023-08-30T14:23:52;19.50;99.90
5689;DHT22;2869;50.432;8.680;2023-08-30T14:26:19;19.60;99.90
5689;DHT22;2869;50.432;8.680;2023-08-30T14:28:47;19.70;99.90
5689;DHT22;2869;50.432;8.680;2023-08-30T14:31:14;19.90;99.90
5689;DHT22;2869;50.432;8.680;2023-08-30T14:33:43;19.90;99.90
5689;DHT22;2869;50.432;8.680;2023-08-30T14:36:11;20.00;99.90
5689;DHT22;2869;50.432;8.680;2023-08-30T14:38:38;20.20;99.90
5689;DHT22;2869;50.432;8.680;2023-08-30T14:41:06;20.40;99.90
5689;DHT22;2869;50.432;8.680;2023-08-30T14:43:33;20.60;99.90
5689;DHT22;2869;50.432;8.680;2023-08-30T14:46:01;20.60;99.90
5689;DHT22;2869;50.432;8.680;2023-08-30T14:48:28;20.70;99.90
5689;DHT22;2869;50.432;8.680;2023-08-30T14:50:57;20.80;99.90
5689;DHT22;2869;50.432;8.680;2023-08-30T14:53:23;20.90;99.90
5689;DHT22;2869;50.432;8.680;2023-08-30T14:55:50;20.90;99.90
5689;DHT22;2869;50.432;8.680;2023-08-30T14:58:17;20.90;99.90
5689;DHT22;2869;50.432;8.680;2023-08-30T15:00:44;20.90;99.90
5689;DHT22;2869;50.432;8.680;2023-08-30T15:03:14;21.00;99.90
5689;DHT22;2869;50.432;8.680;2023-08-30T15:05:41;21.20;99.90
5689;DHT22;2869;50.432;8.680;2023-08-30T15:08:08;21.20;99.90
5689;DHT22;2869;50.432;8.680;2023-08-30T15:10:34;21.20;99.90
5689;DHT22;2869;50.432;8.680;2023-08-30T15:13:01;21.00;99.90
5689;DHT22;2869;50.432;8.680;2023-08-30T15:15:28;20.80;99.90
5689;DHT22;2869;50.432;8.680;2023-08-30T15:17:56;20.70;99.90
5689;DHT22;2869;50.432;8.680;2023-08-30T15:20:24;20.70;99.90
5689;DHT22;2869;50.432;8.680;2023-08-30T15:22:51;20.90;99.90
5689;DHT22;2869;50.432;8.680;2023-08-30T15:25:18;21.00;99.90
5689;DHT22;2869;50.432;8.680;2023-08-30T15:27:44;21.30;99.90
5689;DHT22;2869;50.432;8.680;2023-08-30T15:30:12;21.40;99.90
5689;DHT22;2869;50.432;8.680;2023-08-30T15:32:39;21.70;99.90
5689;DHT22;2869;50.432;8.680;2023-08-30T15:35:08;21.70;99.90
5689;DHT22;2869;50.432;8.680;2023-08-30T15:37:36;21.70;99.90
5689;DHT22;2869;50.432;8.680;2023-08-30T15:40:04;21.70;99.90
5689;DHT22;2869;50.432;8.680;2023-08-30T15:42:33;21.70;99.90
5689;DHT22;2869;50.432;8.680;2023-08-30T15:45:00;21.60;99.90
5689;DHT22;2869;50.432;8.680;2023-08-30T15:47:27;21.40;99.90
5689;DHT22;2869;50.432;8.680;2023-08-30T15:49:53;21.30;99.90
5689;DHT22;2869;50.432;8.680;2023-08-30T15:52:20;21.20;99.90
5689;DHT22;2869;50.432;8.680;2023-08-30T15:54:48;21.10;99.90
5689;DHT22;2869;50.432;8.680;2023-08-30T15:57:14;21.00;99.90
5689;DHT22;2869;50.432;8.680;2023-08-30T15:59:41;20.80;99.90
5689;DHT22;2869;50.432;8.680;2023-08-30T16:02:08;20.80;99.90
5689;DHT22;2869;50.432;8.680;2023-08-30T16:04:34;20.70;99.90